createdAt,value
2023-04-21T00:02:22.080Z,26.93
2023-04-21T00:04:51.712Z,27.47
2023-04-21T00:07:20.325Z,25.63
2023-04-21T00:09:47.940Z,27.10
2023-04-21T00:12:15.613Z,26.87
2023-04-21T00:14:43.308Z,28.80
2023-04-21T00:17:10.945Z,28.30
2023-04-21T00:19:38.522Z,27.97
2023-04-21T00:22:12.061Z,27.63
2023-04-21T00:24:39.613Z,28.73
2023-04-21T00:27:07.206Z,27.20
2023-04-21T00:29:34.794Z,27.30
2023-04-21T00:32:03.792Z,27.57
2023-04-21T00:34:31.418Z,26.80
2023-04-21T00:36:58.981Z,28.47
2023-04-21T00:39:27.893Z,27.47
2023-04-21T00:41:55.672Z,28.83
2023-04-21T00:44:23.379Z,29.03
2023-04-21T00:46:50.973Z,28.33
2023-04-21T00:49:18.789Z,26.83
2023-04-21T00:51:46.775Z,29.53
2023-04-21T00:54:15.277Z,30.13
2023-04-21T00:56:44.388Z,29.97
2023-04-21T00:59:12.030Z,30.80
2023-04-21T01:01:40.147Z,31.10
2023-04-21T01:04:10.288Z,30.57
2023-04-21T01:06:38.166Z,30.73
2023-04-21T01:09:07.928Z,31.30
2023-04-21T01:11:36.256Z,32.70
2023-04-21T01:14:05.357Z,31.97
2023-04-21T01:16:33.714Z,34.93
2023-04-21T01:19:02.383Z,34.87
2023-04-21T01:21:31.991Z,34.87
2023-04-21T01:24:01.116Z,35.27
2023-04-21T01:26:28.642Z,34.17
2023-04-21T01:28:57.978Z,34.60
2023-04-21T01:31:27.355Z,34.17
2023-04-21T01:33:55.415Z,35.23
2023-04-21T01:36:23.441Z,34.37
2023-04-21T01:38:51.393Z,35.00
2023-04-21T01:41:20.809Z,33.30
2023-04-21T01:43:48.488Z,34.23
2023-04-21T01:46:16.237Z,32.90
2023-04-21T01:48:43.907Z,35.17
2023-04-21T01:51:11.558Z,35.43
2023-04-21T01:53:39.191Z,34.37
2023-04-21T01:56:07.444Z,34.20
2023-04-21T01:58:36.317Z,35.37
2023-04-21T02:01:04.085Z,33.40
2023-04-21T02:03:31.880Z,35.00
2023-04-21T02:05:59.547Z,35.37
2023-04-21T02:08:27.138Z,35.00
2023-04-21T02:10:54.871Z,35.13
2023-04-21T02:13:22.470Z,35.20
2023-04-21T02:15:59.564Z,37.53
2023-04-21T02:18:34.528Z,36.30
2023-04-21T02:21:02.926Z,37.53
2023-04-21T02:23:30.518Z,36.73
2023-04-21T02:25:58.089Z,37.83
2023-04-21T02:28:25.619Z,38.00
2023-04-21T02:30:54.543Z,38.03
2023-04-21T02:33:22.217Z,37.83
2023-04-21T02:35:49.828Z,36.27
2023-04-21T02:38:17.390Z,38.77
2023-04-21T02:40:44.916Z,36.87
2023-04-21T02:43:12.694Z,37.33
2023-04-21T02:45:40.566Z,38.80
2023-04-21T02:48:09.686Z,38.30
2023-04-21T02:50:38.043Z,37.33
2023-04-21T02:53:05.696Z,37.67
2023-04-21T02:55:33.336Z,37.57
2023-04-21T02:58:00.846Z,37.40
2023-04-21T03:00:28.441Z,37.03
2023-04-21T03:02:56.302Z,38.10
2023-04-21T03:05:25.331Z,37.63
2023-04-21T03:07:52.895Z,39.13
2023-04-21T03:10:20.477Z,39.30
2023-04-21T03:12:48.255Z,37.90
2023-04-21T03:15:16.844Z,38.30
2023-04-21T03:17:44.436Z,37.60
2023-04-21T03:20:12.724Z,37.60
2023-04-21T03:22:41.615Z,37.17
2023-04-21T03:25:09.171Z,37.00
2023-04-21T03:27:37.425Z,37.90
2023-04-21T03:30:06.676Z,40.27
2023-04-21T03:32:34.335Z,38.13
2023-04-21T03:35:01.905Z,38.23
2023-04-21T03:37:29.482Z,39.40
2023-04-21T03:39:58.548Z,39.93
2023-04-21T03:42:26.275Z,40.37
2023-04-21T03:44:53.854Z,42.77
2023-04-21T03:47:21.416Z,41.33
2023-04-21T03:49:48.940Z,40.43
2023-04-21T03:52:16.574Z,45.60
2023-04-21T03:54:44.088Z,47.03
2023-04-21T03:57:12.994Z,55.33
2023-04-21T03:59:40.573Z,49.83
2023-04-21T04:02:08.283Z,52.80
2023-04-21T04:04:36.633Z,52.07
2023-04-21T04:07:04.933Z,42.83
2023-04-21T04:09:33.328Z,43.60
2023-04-21T04:12:02.792Z,54.47
2023-04-21T04:14:31.712Z,55.33
2023-04-21T04:16:59.848Z,51.47
2023-04-21T04:19:31.423Z,57.90
2023-04-21T04:21:59.833Z,63.70
2023-04-21T04:24:27.656Z,59.00
2023-04-21T04:26:58.168Z,73.80
2023-04-21T04:29:26.978Z,73.10
2023-04-21T04:31:56.230Z,76.80
2023-04-21T04:34:24.163Z,71.20
2023-04-21T04:36:51.841Z,66.50
2023-04-21T04:39:19.651Z,59.00
2023-04-21T04:41:48.597Z,73.70
2023-04-21T04:44:18.083Z,80.27
2023-04-21T04:46:46.417Z,66.33
2023-04-21T04:49:15.453Z,67.23
2023-04-21T04:51:43.051Z,73.30
2023-04-21T04:54:10.654Z,62.03
2023-04-21T04:56:38.307Z,74.10
2023-04-21T04:59:06.684Z,72.53
2023-04-21T05:01:34.286Z,60.13
2023-04-21T05:04:02.097Z,73.60
2023-04-21T05:06:32.156Z,70.80
2023-04-21T05:08:59.784Z,81.87
2023-04-21T05:11:27.379Z,70.77
2023-04-21T05:13:55.071Z,63.90
2023-04-21T05:16:22.738Z,78.07
2023-04-21T05:18:54.003Z,72.33
2023-04-21T05:21:27.483Z,77.90
2023-04-21T05:23:57.187Z,86.30
2023-04-21T05:26:25.650Z,80.57
2023-04-21T05:28:53.221Z,73.47
2023-04-21T05:31:20.888Z,77.83
2023-04-21T05:33:48.428Z,75.07
2023-04-21T05:36:16.021Z,78.90
2023-04-21T05:38:43.656Z,72.30
2023-04-21T05:41:12.656Z,71.67
2023-04-21T05:43:40.209Z,61.23
2023-04-21T05:46:10.246Z,67.47
2023-04-21T05:48:38.060Z,100.33
2023-04-21T05:51:12.385Z,85.87
2023-04-21T05:53:40.055Z,86.97
2023-04-21T05:56:09.707Z,65.03
2023-04-21T05:58:39.108Z,61.67
2023-04-21T06:01:07.306Z,77.27
2023-04-21T06:03:35.083Z,61.87
2023-04-21T06:06:03.852Z,58.10
2023-04-21T06:08:31.512Z,53.97
2023-04-21T06:10:59.202Z,47.93
2023-04-21T06:13:27.769Z,54.70
2023-04-21T06:15:56.856Z,75.53
2023-04-21T06:18:25.086Z,54.63
2023-04-21T06:20:52.789Z,47.77
2023-04-21T06:23:20.548Z,54.63
2023-04-21T06:25:48.148Z,60.30
2023-04-21T06:28:15.681Z,55.30
2023-04-21T06:30:44.839Z,48.67
2023-04-21T06:33:13.685Z,61.63
2023-04-21T06:35:41.314Z,51.70
2023-04-21T06:38:09.782Z,44.70
2023-04-21T06:40:37.469Z,41.93
2023-04-21T06:43:05.142Z,43.40
2023-04-21T06:45:32.730Z,47.87
2023-04-21T06:48:00.352Z,41.33
2023-04-21T06:50:29.388Z,42.03
2023-04-21T06:52:56.973Z,38.20
2023-04-21T06:55:24.675Z,48.30
2023-04-21T06:57:52.356Z,40.83
2023-04-21T07:00:20.141Z,37.83
2023-04-21T07:02:47.928Z,35.07
2023-04-21T07:05:15.677Z,36.50
2023-04-21T07:07:44.591Z,35.40
2023-04-21T07:10:12.489Z,34.83
2023-04-21T07:12:40.138Z,35.27
2023-04-21T07:15:09.472Z,35.57
2023-04-21T07:17:37.100Z,35.50
2023-04-21T07:20:05.324Z,36.60
2023-04-21T07:22:34.521Z,35.03
2023-04-21T07:27:34.074Z,32.63
2023-04-21T07:30:01.746Z,31.90
2023-04-21T07:32:29.325Z,34.57
2023-04-21T07:34:56.900Z,33.93
2023-04-21T07:37:24.937Z,30.90
2023-04-21T07:39:52.681Z,31.97
2023-04-21T07:42:22.421Z,32.37
2023-04-21T07:44:50.304Z,31.77
2023-04-21T07:47:17.915Z,31.23
2023-04-21T07:49:45.628Z,29.70
2023-04-21T07:52:13.188Z,28.13
2023-04-21T07:54:40.831Z,28.00
2023-04-21T07:57:08.445Z,27.47
2023-04-21T07:59:37.331Z,29.00
2023-04-21T08:02:05.018Z,40.73
2023-04-21T08:04:32.849Z,26.50
2023-04-21T08:07:00.840Z,26.17
2023-04-21T08:09:28.599Z,26.47
2023-04-21T08:11:57.170Z,26.07
2023-04-21T08:14:26.767Z,25.97
2023-04-21T08:16:57.174Z,24.80
2023-04-21T08:19:25.159Z,25.13
2023-04-21T08:21:52.955Z,22.40
2023-04-21T08:24:20.985Z,20.83
2023-04-21T08:26:48.727Z,21.33
2023-04-21T08:29:16.584Z,20.40
2023-04-21T08:31:44.232Z,19.63
2023-04-21T08:34:13.601Z,18.33
2023-04-21T08:36:41.603Z,17.33
2023-04-21T08:39:09.388Z,17.33
2023-04-21T08:41:40.095Z,17.87
2023-04-21T08:44:07.683Z,17.90
2023-04-21T08:46:36.273Z,19.63
2023-04-21T08:49:04.145Z,20.00
2023-04-21T08:51:33.840Z,19.30
2023-04-21T08:54:01.457Z,19.37
2023-04-21T08:56:29.067Z,19.13
2023-04-21T08:58:57.624Z,19.03
2023-04-21T09:01:25.283Z,20.10
2023-04-21T09:03:53.154Z,19.13
2023-04-21T09:06:21.386Z,20.00
2023-04-21T09:08:56.536Z,19.27
2023-04-21T09:11:24.404Z,18.93
2023-04-21T09:13:52.877Z,18.23
2023-04-21T09:16:22.661Z,15.17
2023-04-21T09:18:51.464Z,17.10
2023-04-21T09:21:20.178Z,16.83
2023-04-21T09:23:51.655Z,14.20
2023-04-21T09:26:22.743Z,11.70
2023-04-21T09:28:52.151Z,10.40
2023-04-21T09:31:21.038Z,10.30
2023-04-21T09:36:21.914Z,8.00
2023-04-21T09:38:57.590Z,8.90
2023-04-21T09:41:40.884Z,9.60
2023-04-21T09:44:08.464Z,8.33
2023-04-21T09:46:37.657Z,7.43
2023-04-21T09:49:07.071Z,11.33
2023-04-21T09:54:28.501Z,10.27
2023-04-21T09:57:01.720Z,10.80
2023-04-21T09:59:31.377Z,12.17
2023-04-21T10:01:59.413Z,13.53
2023-04-21T10:04:28.897Z,11.80
2023-04-21T10:06:57.249Z,11.40
2023-04-21T10:09:27.040Z,9.43
2023-04-21T10:11:55.554Z,10.07
2023-04-21T10:14:26.174Z,10.23
2023-04-21T10:16:57.893Z,10.67
2023-04-21T10:19:26.419Z,10.80
2023-04-21T10:21:57.198Z,10.30
2023-04-21T10:24:24.881Z,10.83
2023-04-21T10:26:54.821Z,12.47
2023-04-21T10:29:43.765Z,12.50
2023-04-21T10:32:32.825Z,13.50
2023-04-21T10:35:00.652Z,13.20
2023-04-21T10:37:32.450Z,12.83
2023-04-21T10:40:00.205Z,14.53
2023-04-21T10:42:31.139Z,12.67
2023-04-21T10:45:18.077Z,13.87
2023-04-21T10:47:48.901Z,11.53
2023-04-21T10:50:22.721Z,10.50
2023-04-21T10:52:56.258Z,10.07
2023-04-21T10:55:27.460Z,11.57
2023-04-21T10:57:55.055Z,10.30
2023-04-21T11:00:25.373Z,9.87
2023-04-21T11:03:00.930Z,10.10
2023-04-21T11:05:34.559Z,10.40
2023-04-21T11:08:11.195Z,10.07
2023-04-21T11:10:50.853Z,10.83
2023-04-21T11:13:21.858Z,9.27
2023-04-21T11:16:01.504Z,10.27
2023-04-21T11:18:39.817Z,10.93
2023-04-21T11:21:17.811Z,11.07
2023-04-21T11:23:52.994Z,10.03
2023-04-21T11:26:25.922Z,8.67
2023-04-21T11:28:53.518Z,8.87
2023-04-21T11:31:22.490Z,10.83
2023-04-21T11:33:51.221Z,9.10
2023-04-21T11:36:22.512Z,7.20
2023-04-21T11:38:50.285Z,10.17
2023-04-21T11:41:22.160Z,10.87
2023-04-21T11:43:50.080Z,11.73
2023-04-21T11:46:18.884Z,10.20
2023-04-21T11:48:47.860Z,9.33
2023-04-21T11:51:16.621Z,9.97
2023-04-21T11:53:44.301Z,10.40
2023-04-21T11:56:12.747Z,9.03
2023-04-21T11:58:40.557Z,11.03
2023-04-21T12:01:11.058Z,11.50
2023-04-21T12:03:38.826Z,11.73
2023-04-21T12:06:08.403Z,11.53
2023-04-21T12:08:36.130Z,12.60
2023-04-21T12:11:03.884Z,11.10
2023-04-21T12:13:32.794Z,9.83
2023-04-21T12:16:03.872Z,10.73
2023-04-21T12:18:34.892Z,11.80
2023-04-21T12:21:04.217Z,11.00
2023-04-21T12:23:33.153Z,11.40
2023-04-21T12:26:01.362Z,12.50
2023-04-21T12:28:31.176Z,12.10
2023-04-21T12:30:58.811Z,12.30
2023-04-21T12:33:26.806Z,12.87
2023-04-21T12:35:54.498Z,12.63
2023-04-21T12:38:22.163Z,11.73
2023-04-21T12:40:51.054Z,14.17
2023-04-21T12:43:18.594Z,14.70
2023-04-21T12:45:46.366Z,10.77
2023-04-21T12:48:13.952Z,10.77
2023-04-21T12:50:41.527Z,11.23
2023-04-21T12:53:09.112Z,11.83
2023-04-21T12:55:37.202Z,10.63
2023-04-21T12:58:06.061Z,11.00
2023-04-21T13:00:35.843Z,9.93
2023-04-21T13:03:04.426Z,10.30
2023-04-21T13:05:34.933Z,9.77
2023-04-21T13:08:02.494Z,9.87
2023-04-21T13:10:30.183Z,10.00
2023-04-21T13:12:57.767Z,11.53
2023-04-21T13:15:26.644Z,10.70
2023-04-21T13:17:54.346Z,10.90
2023-04-21T13:20:22.414Z,9.67
2023-04-21T13:22:50.059Z,9.53
2023-04-21T13:25:17.841Z,9.63
2023-04-21T13:27:46.766Z,9.53
2023-04-21T13:30:15.750Z,9.90
2023-04-21T13:32:44.753Z,9.90
2023-04-21T13:35:12.598Z,11.77
2023-04-21T13:37:41.256Z,12.07
2023-04-21T13:40:10.799Z,13.03
2023-04-21T13:42:39.322Z,12.63
2023-04-21T13:45:08.012Z,13.17
2023-04-21T13:47:36.091Z,12.27
2023-04-21T13:50:05.725Z,12.40
2023-04-21T13:52:34.880Z,11.60
2023-04-21T13:55:02.759Z,10.70
2023-04-21T13:57:30.583Z,11.33
2023-04-21T13:59:58.220Z,11.10
2023-04-21T14:02:26.146Z,12.17
2023-04-21T14:04:54.532Z,13.67
2023-04-21T14:07:26.162Z,12.17
2023-04-21T14:09:54.363Z,12.27
2023-04-21T14:12:22.128Z,11.27
2023-04-21T14:14:49.992Z,11.50
2023-04-21T14:17:17.826Z,10.93
2023-04-21T14:19:45.428Z,10.43
2023-04-21T14:22:13.342Z,11.20
2023-04-21T14:24:42.484Z,10.73
2023-04-21T14:27:10.722Z,10.80
2023-04-21T14:29:38.359Z,10.80
2023-04-21T14:32:06.119Z,11.77
2023-04-21T14:34:33.827Z,10.07
2023-04-21T14:37:01.629Z,11.30
2023-04-21T14:39:29.245Z,11.50
2023-04-21T14:41:58.218Z,11.20
2023-04-21T14:44:25.842Z,11.23
2023-04-21T14:47:05.678Z,10.93
2023-04-21T14:49:37.394Z,10.23
2023-04-21T14:52:05.308Z,10.30
2023-04-21T14:54:32.874Z,9.90
2023-04-21T14:57:17.884Z,9.33
2023-04-21T14:59:47.151Z,8.53
2023-04-21T15:02:15.129Z,10.50
2023-04-21T15:04:42.914Z,9.13
2023-04-21T15:07:10.544Z,8.77
2023-04-21T15:09:39.076Z,9.33
2023-04-21T15:12:08.200Z,10.40
2023-04-21T15:14:40.246Z,9.87
2023-04-21T15:17:08.524Z,8.83
2023-04-21T15:19:36.419Z,8.20
2023-04-21T15:22:04.866Z,9.20
2023-04-21T15:24:32.570Z,8.83
2023-04-21T15:27:01.303Z,8.50
2023-04-21T15:29:30.309Z,9.07
2023-04-21T15:31:57.992Z,7.87
2023-04-21T15:34:25.931Z,7.37
2023-04-21T15:36:54.525Z,7.73
2023-04-21T15:39:22.194Z,7.60
2023-04-21T15:41:49.799Z,8.43
2023-04-21T15:44:17.297Z,7.30
2023-04-21T15:46:46.276Z,8.17
2023-04-21T15:49:13.984Z,7.77
2023-04-21T15:51:42.053Z,7.87
2023-04-21T15:54:10.360Z,7.43
2023-04-21T15:56:38.063Z,7.37
2023-04-21T15:59:05.993Z,8.23
2023-04-21T16:01:33.955Z,8.13
2023-04-21T16:04:03.489Z,8.33
2023-04-21T16:06:31.550Z,7.57
2023-04-21T16:08:59.178Z,7.50
2023-04-21T16:11:29.084Z,7.50
2023-04-21T16:13:57.122Z,7.00
2023-04-21T16:16:24.736Z,8.10
2023-04-21T16:18:52.378Z,7.70
2023-04-21T16:21:21.608Z,8.53
2023-04-21T16:23:49.302Z,7.67
2023-04-21T16:26:16.898Z,7.90
2023-04-21T16:28:44.542Z,8.10
2023-04-21T16:31:12.673Z,7.60
2023-04-21T16:33:40.578Z,8.20
2023-04-21T16:36:08.388Z,7.80
2023-04-21T16:38:37.426Z,8.20
2023-04-21T16:41:04.995Z,7.70
2023-04-21T16:43:32.641Z,7.97
2023-04-21T16:46:00.333Z,7.33
2023-04-21T16:48:28.070Z,7.20
2023-04-21T16:50:55.786Z,7.47
2023-04-21T16:53:25.363Z,7.87
2023-04-21T16:55:54.412Z,6.70
2023-04-21T16:58:24.236Z,7.47
2023-04-21T17:00:52.014Z,7.70
2023-04-21T17:03:19.838Z,6.50
2023-04-21T17:05:47.578Z,7.43
2023-04-21T17:08:15.326Z,7.43
2023-04-21T17:10:42.894Z,7.77
2023-04-21T17:13:11.846Z,6.70
2023-04-21T17:15:39.659Z,6.30
2023-04-21T17:18:07.363Z,3.43
2023-04-21T17:20:35.076Z,2.00
2023-04-21T17:23:02.652Z,1.40
2023-04-21T17:25:30.259Z,1.40
2023-04-21T17:27:57.802Z,1.80
2023-04-21T17:30:27.036Z,2.10
2023-04-21T17:33:03.907Z,2.27
2023-04-21T17:35:37.932Z,2.60
2023-04-21T17:38:06.658Z,2.40
2023-04-21T17:40:34.320Z,1.80
2023-04-21T17:43:01.927Z,1.80
2023-04-21T17:45:31.187Z,1.70
2023-04-21T17:47:58.879Z,2.20
2023-04-21T17:50:27.625Z,2.13
2023-04-21T17:52:55.312Z,2.20
2023-04-21T17:55:23.321Z,2.20
2023-04-21T17:57:51.055Z,2.40
2023-04-21T18:00:19.980Z,2.80
2023-04-21T18:02:49.045Z,2.33
2023-04-21T18:05:17.114Z,2.20
2023-04-21T18:07:44.851Z,2.00
2023-04-21T18:10:12.764Z,1.70
2023-04-21T18:12:40.695Z,2.10
2023-04-21T18:15:10.308Z,2.10
2023-04-21T18:17:38.145Z,1.67
2023-04-21T18:20:08.419Z,1.60
2023-04-21T18:22:36.040Z,1.97
2023-04-21T18:25:04.030Z,1.70
2023-04-21T18:27:31.599Z,1.77
2023-04-21T18:29:59.163Z,1.83
2023-04-21T18:32:26.813Z,2.23
2023-04-21T18:34:54.594Z,1.80
2023-04-21T18:37:23.628Z,1.80
2023-04-21T18:39:51.196Z,1.70
2023-04-21T18:42:18.827Z,2.10
2023-04-21T18:44:46.442Z,2.40
2023-04-21T18:47:15.361Z,2.73
2023-04-21T18:49:42.999Z,2.20
2023-04-21T18:52:10.585Z,2.37
2023-04-21T18:54:39.725Z,2.80
2023-04-21T18:57:08.504Z,2.53
2023-04-21T18:59:36.075Z,2.53
2023-04-21T19:02:05.986Z,3.20
2023-04-21T19:04:33.885Z,2.87
2023-04-21T19:07:01.866Z,2.60
2023-04-21T19:09:29.875Z,2.60
2023-04-21T19:11:58.836Z,3.10
2023-04-21T19:14:27.818Z,2.97
2023-04-21T19:16:55.550Z,3.30
2023-04-21T19:19:24.017Z,4.07
2023-04-21T19:21:51.558Z,3.30
2023-04-21T19:24:19.171Z,3.33
2023-04-21T19:26:46.881Z,3.60
2023-04-21T19:29:15.909Z,3.63
2023-04-21T19:31:43.526Z,4.00
2023-04-21T19:34:11.131Z,3.63
2023-04-21T19:36:38.770Z,3.37
2023-04-21T19:39:07.349Z,2.90
2023-04-21T19:41:34.927Z,3.10
2023-04-21T19:44:02.471Z,3.23
2023-04-21T19:46:32.075Z,3.20
2023-04-21T19:48:59.717Z,3.17
2023-04-21T19:51:27.875Z,3.13
2023-04-21T19:54:10.112Z,3.10
2023-04-21T19:56:38.747Z,3.40
2023-04-21T19:59:06.373Z,3.30
2023-04-21T20:01:35.593Z,3.53
2023-04-21T20:04:04.068Z,3.17
2023-04-21T20:06:32.032Z,3.70
2023-04-21T20:08:59.677Z,3.70
2023-04-21T20:11:29.185Z,3.67
2023-04-21T20:13:56.961Z,3.47
2023-04-21T20:16:26.228Z,4.97
2023-04-21T20:18:55.475Z,5.13
2023-04-21T20:21:23.204Z,6.13
2023-04-21T20:23:50.738Z,5.50
2023-04-21T20:26:18.455Z,5.73
2023-04-21T20:28:46.033Z,6.07
2023-04-21T20:31:13.689Z,4.73
2023-04-21T20:33:41.245Z,4.80
2023-04-21T20:36:11.764Z,4.83
2023-04-21T20:38:39.292Z,4.00
2023-04-21T20:41:07.097Z,3.93
2023-04-21T20:43:34.762Z,3.13
2023-04-21T20:46:03.306Z,3.53
2023-04-21T20:48:31.378Z,3.60
2023-04-21T20:50:58.945Z,3.00
2023-04-21T20:53:27.935Z,2.97
2023-04-21T20:55:55.698Z,3.27
2023-04-21T20:58:24.402Z,4.00
2023-04-21T21:00:52.187Z,4.67
2023-04-21T21:03:20.558Z,3.90
2023-04-21T21:05:48.654Z,3.50
2023-04-21T21:08:16.402Z,3.57
2023-04-21T21:10:45.411Z,3.53
2023-04-21T21:13:12.962Z,2.97
2023-04-21T21:15:40.551Z,3.97
2023-04-21T21:18:08.317Z,4.47
2023-04-21T21:20:36.094Z,3.37
2023-04-21T21:23:03.770Z,3.63
2023-04-21T21:25:31.339Z,3.33
2023-04-21T21:28:00.319Z,3.43
2023-04-21T21:30:27.962Z,3.50
2023-04-21T21:32:55.916Z,2.97
2023-04-21T21:35:23.701Z,3.47
2023-04-21T21:37:51.314Z,2.97
2023-04-21T21:40:19.030Z,3.67
2023-04-21T21:42:46.576Z,3.17
2023-04-21T21:45:15.756Z,3.03
2023-04-21T21:47:45.634Z,2.90
2023-04-21T21:50:13.700Z,3.20
2023-04-21T21:52:41.554Z,3.30
2023-04-21T21:55:10.135Z,3.33
2023-04-21T21:57:37.983Z,4.03
2023-04-21T22:00:08.084Z,3.53
2023-04-21T22:02:37.415Z,3.00
2023-04-21T22:05:05.686Z,3.73
2023-04-21T22:07:33.289Z,3.50
2023-04-21T22:10:01.166Z,3.53
2023-04-21T22:12:28.807Z,4.17
2023-04-21T22:14:56.554Z,3.90
2023-04-21T22:17:24.781Z,3.60
2023-04-21T22:19:53.736Z,4.10
2023-04-21T22:22:21.506Z,3.23
2023-04-21T22:24:49.125Z,3.97
2023-04-21T22:27:16.709Z,3.70
2023-04-21T22:29:44.391Z,3.67
2023-04-21T22:32:12.062Z,3.23
2023-04-21T22:34:39.818Z,3.57
2023-04-21T22:37:08.771Z,3.37
2023-04-21T22:39:38.027Z,3.90
2023-04-21T22:42:06.836Z,3.80
2023-04-21T22:44:34.462Z,4.07
2023-04-21T22:47:02.095Z,3.70
2023-04-21T22:49:29.835Z,3.90
2023-04-21T22:51:57.482Z,4.03
2023-04-21T22:54:26.449Z,4.00
2023-04-21T22:56:54.199Z,3.80
2023-04-21T22:59:22.031Z,4.53
2023-04-21T23:01:49.952Z,4.30
2023-04-21T23:04:17.915Z,4.00
2023-04-21T23:06:45.595Z,4.00
2023-04-21T23:09:13.407Z,4.17
2023-04-21T23:11:45.205Z,3.87
2023-04-21T23:14:12.783Z,3.40
2023-04-21T23:16:40.640Z,3.97
2023-04-21T23:19:08.615Z,4.20
2023-04-21T23:21:36.389Z,4.07
2023-04-21T23:24:04.085Z,4.33
2023-04-21T23:26:31.663Z,4.17
2023-04-21T23:29:00.708Z,5.27
2023-04-21T23:31:28.650Z,4.43
2023-04-21T23:33:56.590Z,4.40
2023-04-21T23:36:24.238Z,4.43
2023-04-21T23:38:51.890Z,4.17
2023-04-21T23:41:19.519Z,5.03
2023-04-21T23:43:47.338Z,5.10
2023-04-21T23:46:16.419Z,5.00
2023-04-21T23:48:44.173Z,5.00
2023-04-21T23:51:11.845Z,4.30
2023-04-21T23:53:39.491Z,4.50
2023-04-21T23:56:07.621Z,4.70
2023-04-21T23:58:35.316Z,4.57
